Time;durP1;ratioP1;P1;durP2;ratioP2;P2;SDS_P1;SDS_P2;PMS_P1;PMS_P2;Temp;Humidity;BMP_temperature;BMP_pressure;BME280_temperature;BME280_humidity;BME280_pressure;Samples;Min_cycle;Max_cycle;Signal;HPM_P1;HPM_P2
2024/01/06 00:02:25;;;;;;;;;;;17.20;50.80;;;;;;7408889;19;1069;-75
2024/01/06 00:04:51;;;;;;;;;;;17.30;50.60;;;;;;7409475;19;1436;-74
2024/01/06 00:07:16;;;;;;;;;;;17.30;50.30;;;;;;7406131;19;1407;-74
2024/01/06 00:09:41;;;;;;;;;;;17.50;50.00;;;;;;7401524;19;2028;-74
2024/01/06 00:12:07;;;;;;;;;;;17.60;49.90;;;;;;7401117;19;1435;-75
2024/01/06 00:14:32;;;;;;;;;;;17.60;49.70;;;;;;7398433;19;851;-75
2024/01/06 00:16:58;;;;;;;;;;;17.60;49.60;;;;;;7397953;19;820;-75
2024/01/06 00:19:23;;;;;;;;;;;17.60;49.60;;;;;;7397718;19;3156;-74
2024/01/06 00:21:49;;;;;;;;;;;17.60;49.70;;;;;;7399866;19;2967;-75
2024/01/06 00:24:14;;;;;;;;;;;17.50;49.90;;;;;;7399769;19;1506;-75
2024/01/06 00:26:39;;;;;;;;;;;17.40;50.00;;;;;;7398559;19;1621;-75
2024/01/06 00:29:05;;;;;;;;;;;17.40;50.00;;;;;;7397729;19;850;-75
2024/01/06 00:31:30;;;;;;;;;;;17.30;50.30;;;;;;7398231;19;1950;-75
2024/01/06 00:33:56;;;;;;;;;;;17.20;50.30;;;;;;7398215;19;2025;-75
2024/01/06 00:36:21;;;;;;;;;;;17.20;50.40;;;;;;7401448;19;1651;-75
2024/01/06 00:38:46;;;;;;;;;;;17.10;50.50;;;;;;7399911;19;1990;-75
2024/01/06 00:41:13;;;;;;;;;;;17.10;50.70;;;;;;7399179;19;2041;-74
2024/01/06 00:43:38;;;;;;;;;;;17.10;50.70;;;;;;7400166;19;2199;-75
2024/01/06 00:46:04;;;;;;;;;;;17.10;50.60;;;;;;7396346;19;2070;-74
2024/01/06 00:48:29;;;;;;;;;;;17.00;50.60;;;;;;7399815;19;1891;-75
2024/01/06 00:50:55;;;;;;;;;;;17.00;51.40;;;;;;7398133;19;1848;-74
2024/01/06 00:53:21;;;;;;;;;;;16.90;50.80;;;;;;7396945;19;981;-75
2024/01/06 00:55:46;;;;;;;;;;;16.90;50.80;;;;;;7397946;19;2880;-74
2024/01/06 00:58:13;;;;;;;;;;;17.00;50.60;;;;;;7400890;19;1328;-75
2024/01/06 01:00:38;;;;;;;;;;;17.10;50.10;;;;;;7397107;19;2176;-74
2024/01/06 01:03:03;;;;;;;;;;;17.20;49.90;;;;;;7395852;19;2800;-74
2024/01/06 01:05:29;;;;;;;;;;;17.30;49.50;;;;;;7397340;19;1993;-74
2024/01/06 01:07:54;;;;;;;;;;;17.40;49.40;;;;;;7398127;19;1986;-74
2024/01/06 01:10:20;;;;;;;;;;;17.50;49.20;;;;;;7397743;19;2290;-75
2024/01/06 01:12:45;;;;;;;;;;;17.50;49.00;;;;;;7397139;19;2326;-75
2024/01/06 01:15:11;;;;;;;;;;;17.60;49.00;;;;;;7399316;19;1635;-74
2024/01/06 01:17:37;;;;;;;;;;;17.50;48.80;;;;;;7396573;19;2124;-74
2024/01/06 01:20:02;;;;;;;;;;;17.40;49.60;;;;;;7397823;19;1889;-74
2024/01/06 01:22:28;;;;;;;;;;;17.40;49.00;;;;;;7395537;19;2119;-75
2024/01/06 01:24:53;;;;;;;;;;;17.30;49.20;;;;;;7398011;19;2347;-75
2024/01/06 01:27:19;;;;;;;;;;;17.20;49.40;;;;;;7398810;19;2176;-75
2024/01/06 01:29:44;;;;;;;;;;;17.20;49.80;;;;;;7399372;19;1838;-75
2024/01/06 01:32:09;;;;;;;;;;;17.20;49.60;;;;;;7399793;19;1134;-75
2024/01/06 01:34:35;;;;;;;;;;;17.10;49.70;;;;;;7398431;19;1919;-75
2024/01/06 01:37:00;;;;;;;;;;;17.10;49.80;;;;;;7397596;19;1926;-75
2024/01/06 01:39:26;;;;;;;;;;;17.00;49.90;;;;;;7398050;19;1940;-74
2024/01/06 01:41:51;;;;;;;;;;;17.00;49.90;;;;;;7395780;19;834;-75
2024/01/06 01:44:16;;;;;;;;;;;17.00;50.00;;;;;;7396706;19;2088;-75
2024/01/06 01:46:42;;;;;;;;;;;17.00;50.00;;;;;;7396272;19;2113;-74
2024/01/06 01:49:07;;;;;;;;;;;16.90;50.20;;;;;;7398214;19;1963;-74
2024/01/06 01:51:34;;;;;;;;;;;16.80;50.10;;;;;;7396028;19;2118;-75
2024/01/06 01:53:59;;;;;;;;;;;16.80;50.10;;;;;;7397366;19;1318;-75
2024/01/06 01:56:25;;;;;;;;;;;16.90;49.90;;;;;;7397536;19;2073;-75
2024/01/06 01:58:50;;;;;;;;;;;17.00;49.50;;;;;;7397335;19;2183;-75
2024/01/06 02:01:16;;;;;;;;;;;17.10;49.30;;;;;;7398398;19;1578;-75
2024/01/06 02:03:43;;;;;;;;;;;17.30;49.00;;;;;;7396473;19;3121;-75
2024/01/06 02:06:08;;;;;;;;;;;17.30;48.70;;;;;;7395183;19;1639;-75
2024/01/06 02:08:34;;;;;;;;;;;17.40;48.70;;;;;;7397679;19;1993;-75
2024/01/06 02:10:59;;;;;;;;;;;17.50;48.50;;;;;;7393459;19;1842;-75
2024/01/06 02:13:27;;;;;;;;;;;17.50;48.30;;;;;;7397067;19;1961;-75
2024/01/06 02:15:53;;;;;;;;;;;17.50;48.30;;;;;;7397570;19;1515;-75
2024/01/06 02:18:18;;;;;;;;;;;17.40;48.30;;;;;;7394104;19;1170;-75
2024/01/06 02:20:44;;;;;;;;;;;17.40;48.30;;;;;;7398323;19;1617;-75
2024/01/06 02:23:10;;;;;;;;;;;17.40;48.40;;;;;;7398361;19;1684;-75
2024/01/06 02:25:35;;;;;;;;;;;17.30;48.50;;;;;;7397977;19;2281;-75
2024/01/06 02:28:01;;;;;;;;;;;17.20;48.80;;;;;;7394601;19;2151;-75
2024/01/06 02:30:26;;;;;;;;;;;17.20;48.90;;;;;;7395306;19;1973;-76
2024/01/06 02:32:51;;;;;;;;;;;17.20;48.90;;;;;;7396360;19;1980;-75
2024/01/06 02:35:17;;;;;;;;;;;17.20;48.90;;;;;;7396328;19;1924;-75
2024/01/06 02:37:42;;;;;;;;;;;17.00;49.00;;;;;;7396569;19;1806;-75
2024/01/06 02:40:08;;;;;;;;;;;17.00;49.20;;;;;;7397864;19;1508;-75
2024/01/06 02:42:33;;;;;;;;;;;17.00;49.40;;;;;;7394737;19;2160;-75
2024/01/06 02:44:59;;;;;;;;;;;16.90;49.40;;;;;;7396845;19;2103;-75
2024/01/06 02:47:24;;;;;;;;;;;16.90;49.50;;;;;;7392680;19;2264;-75
2024/01/06 02:49:50;;;;;;;;;;;16.90;49.50;;;;;;7398096;19;1962;-75
2024/01/06 02:52:15;;;;;;;;;;;16.80;49.50;;;;;;7394868;19;2124;-75
2024/01/06 02:54:41;;;;;;;;;;;16.80;49.60;;;;;;7397902;19;1916;-74
2024/01/06 02:57:06;;;;;;;;;;;16.90;49.30;;;;;;7393882;19;1941;-75
2024/01/06 02:59:34;;;;;;;;;;;17.00;49.00;;;;;;7395510;19;2159;-75
2024/01/06 03:02:00;;;;;;;;;;;17.00;48.70;;;;;;7395495;19;2054;-75
2024/01/06 03:04:25;;;;;;;;;;;17.20;48.40;;;;;;7392722;19;1069;-75
2024/01/06 03:06:53;;;;;;;;;;;17.20;48.30;;;;;;7393925;19;2159;-75
2024/01/06 03:09:19;;;;;;;;;;;17.30;48.00;;;;;;7392293;19;1004;-75
2024/01/06 03:11:44;;;;;;;;;;;17.30;47.90;;;;;;7391079;19;1988;-75
2024/01/06 03:14:10;;;;;;;;;;;17.30;47.90;;;;;;7398670;19;1897;-75
2024/01/06 03:16:35;;;;;;;;;;;17.30;48.00;;;;;;7394388;19;2115;-75
2024/01/06 03:19:01;;;;;;;;;;;17.30;47.90;;;;;;7394109;19;2101;-75
2024/01/06 03:21:26;;;;;;;;;;;17.10;48.20;;;;;;7395201;19;2087;-75
2024/01/06 03:23:52;;;;;;;;;;;17.10;48.60;;;;;;7394818;19;1878;-75
2024/01/06 03:26:17;;;;;;;;;;;17.10;48.60;;;;;;7395290;19;1452;-74
2024/01/06 03:28:43;;;;;;;;;;;17.00;48.70;;;;;;7394741;19;2098;-75
2024/01/06 03:31:08;;;;;;;;;;;16.90;48.70;;;;;;7392525;19;1842;-75
2024/01/06 03:33:33;;;;;;;;;;;16.90;49.00;;;;;;7395884;19;1922;-75
2024/01/06 03:36:03;;;;;;;;;;;16.80;49.10;;;;;;7395279;19;1908;-75
2024/01/06 03:38:28;;;;;;;;;;;16.80;49.10;;;;;;7393938;19;1832;-75
2024/01/06 03:40:54;;;;;;;;;;;16.80;49.20;;;;;;7392337;19;887;-75
2024/01/06 03:43:19;;;;;;;;;;;16.80;49.20;;;;;;7394775;19;1854;-74
2024/01/06 03:45:45;;;;;;;;;;;16.70;49.00;;;;;;7399959;19;1513;-75
2024/01/06 03:48:10;;;;;;;;;;;16.80;49.00;;;;;;7398772;19;1691;-75
2024/01/06 03:50:36;;;;;;;;;;;16.80;48.70;;;;;;7400018;19;2186;-74
2024/01/06 03:53:01;;;;;;;;;;;16.90;48.30;;;;;;7401816;19;1798;-75
2024/01/06 03:55:26;;;;;;;;;;;17.00;48.10;;;;;;7400541;19;2836;-75
2024/01/06 03:57:52;;;;;;;;;;;17.10;47.90;;;;;;7400112;19;1049;-75
2024/01/06 04:00:17;;;;;;;;;;;17.20;47.70;;;;;;7401356;19;1521;-75
2024/01/06 04:02:46;;;;;;;;;;;17.30;47.60;;;;;;7401060;19;1864;-74
2024/01/06 04:05:11;;;;;;;;;;;17.30;47.40;;;;;;7402449;19;2093;-75
2024/01/06 04:07:36;;;;;;;;;;;17.30;47.50;;;;;;7400031;19;2155;-75
2024/01/06 04:10:02;;;;;;;;;;;17.20;47.50;;;;;;7399253;19;2026;-75
2024/01/06 04:12:27;;;;;;;;;;;17.20;47.70;;;;;;7402358;19;1527;-75
2024/01/06 04:14:53;;;;;;;;;;;17.10;48.00;;;;;;7400764;19;1830;-75
2024/01/06 04:17:18;;;;;;;;;;;17.00;48.20;;;;;;7400566;19;1801;-75
2024/01/06 04:19:44;;;;;;;;;;;17.00;48.20;;;;;;7401675;19;2166;-75
2024/01/06 04:22:09;;;;;;;;;;;16.90;48.30;;;;;;7401522;19;2095;-75
2024/01/06 04:24:37;;;;;;;;;;;16.90;48.50;;;;;;7398403;19;1870;-75
2024/01/06 04:27:05;;;;;;;;;;;16.90;48.60;;;;;;7400303;19;2091;-75
2024/01/06 04:29:30;;;;;;;;;;;16.80;48.70;;;;;;7400638;19;2159;-75
2024/01/06 04:31:56;;;;;;;;;;;16.70;48.70;;;;;;7400829;19;1367;-75
2024/01/06 04:34:21;;;;;;;;;;;16.80;48.90;;;;;;7399753;19;2166;-75
2024/01/06 04:36:48;;;;;;;;;;;16.70;48.80;;;;;;7400208;19;2122;-75
2024/01/06 04:39:14;;;;;;;;;;;16.70;48.70;;;;;;7400848;19;1679;-75
2024/01/06 04:41:40;;;;;;;;;;;16.80;48.50;;;;;;7396820;19;2614;-74
2024/01/06 04:44:05;;;;;;;;;;;16.90;48.20;;;;;;7398044;19;2589;-75
2024/01/06 04:46:31;;;;;;;;;;;17.00;47.90;;;;;;7398227;19;2071;-75
2024/01/06 04:48:56;;;;;;;;;;;17.20;47.70;;;;;;7398308;19;2478;-75
2024/01/06 04:51:22;;;;;;;;;;;17.30;47.40;;;;;;7399030;19;2410;-75
2024/01/06 04:53:47;;;;;;;;;;;17.40;47.20;;;;;;7401410;19;1334;-75
2024/01/06 04:56:13;;;;;;;;;;;17.40;47.00;;;;;;7394987;19;1919;-75
2024/01/06 04:58:38;;;;;;;;;;;17.40;46.90;;;;;;7399482;19;1607;-75
2024/01/06 05:01:04;;;;;;;;;;;17.40;47.10;;;;;;7395067;19;3011;-75
2024/01/06 05:03:29;;;;;;;;;;;17.30;47.20;;;;;;7399779;19;3336;-75
2024/01/06 05:05:55;;;;;;;;;;;17.20;47.20;;;;;;7401330;19;1578;-75
2024/01/06 05:08:22;;;;;;;;;;;17.20;47.40;;;;;;7398765;19;2144;-75
2024/01/06 05:10:51;;;;;;;;;;;17.10;47.70;;;;;;7399122;19;2014;-75
2024/01/06 05:13:17;;;;;;;;;;;17.10;47.70;;;;;;7398449;19;1464;-75
2024/01/06 05:15:42;;;;;;;;;;;17.00;47.90;;;;;;7399306;19;1487;-75
2024/01/06 05:18:08;;;;;;;;;;;17.00;47.90;;;;;;7401266;19;1583;-75
2024/01/06 05:20:33;;;;;;;;;;;16.90;48.10;;;;;;7400900;19;1373;-75
2024/01/06 05:22:59;;;;;;;;;;;16.80;48.20;;;;;;7399877;19;1852;-75
2024/01/06 05:25:24;;;;;;;;;;;16.80;48.30;;;;;;7401812;19;1487;-75
2024/01/06 05:27:49;;;;;;;;;;;16.70;48.40;;;;;;7397570;19;1014;-75
2024/01/06 05:30:15;;;;;;;;;;;16.70;48.50;;;;;;7398027;19;1842;-75
2024/01/06 05:32:40;;;;;;;;;;;16.70;48.60;;;;;;7396894;19;1461;-75
2024/01/06 05:35:07;;;;;;;;;;;16.70;48.40;;;;;;7400843;19;2015;-75
2024/01/06 05:37:32;;;;;;;;;;;16.70;48.20;;;;;;7398694;19;1950;-74
2024/01/06 05:40:01;;;;;;;;;;;16.80;48.10;;;;;;7400327;19;2133;-75
2024/01/06 05:42:26;;;;;;;;;;;16.90;47.90;;;;;;7398477;19;1646;-75
2024/01/06 05:44:52;;;;;;;;;;;17.00;47.80;;;;;;7396178;19;1068;-75
2024/01/06 05:47:17;;;;;;;;;;;17.00;47.40;;;;;;7396722;19;1899;-75
2024/01/06 05:49:44;;;;;;;;;;;17.10;47.40;;;;;;7398946;19;1901;-75
2024/01/06 05:52:09;;;;;;;;;;;17.10;47.90;;;;;;7399618;19;1311;-75
2024/01/06 05:54:35;;;;;;;;;;;17.10;47.10;;;;;;7398034;19;2102;-75
2024/01/06 05:57:00;;;;;;;;;;;17.10;47.20;;;;;;7397127;19;2123;-75
2024/01/06 05:59:26;;;;;;;;;;;17.10;47.30;;;;;;7400554;19;1939;-75
2024/01/06 06:01:52;;;;;;;;;;;17.00;47.20;;;;;;7397971;19;1868;-75
2024/01/06 06:04:18;;;;;;;;;;;17.00;47.60;;;;;;7396577;19;2059;-75
2024/01/06 06:06:44;;;;;;;;;;;17.00;47.60;;;;;;7398522;19;1617;-75
2024/01/06 06:09:10;;;;;;;;;;;17.00;47.70;;;;;;7393117;19;1440;-75
2024/01/06 06:11:35;;;;;;;;;;;16.90;47.70;;;;;;7390446;19;2126;-75
2024/01/06 06:14:02;;;;;;;;;;;16.80;47.70;;;;;;7397853;19;1924;-75
2024/01/06 06:16:28;;;;;;;;;;;16.80;47.90;;;;;;7395782;19;1656;-75
2024/01/06 06:18:54;;;;;;;;;;;16.70;48.10;;;;;;7395686;19;2095;-75
2024/01/06 06:21:19;;;;;;;;;;;16.70;48.80;;;;;;7396280;19;2293;-75
2024/01/06 06:23:45;;;;;;;;;;;16.70;48.20;;;;;;7396170;19;2029;-75
2024/01/06 06:26:11;;;;;;;;;;;16.70;48.10;;;;;;7394138;19;882;-75
2024/01/06 06:28:37;;;;;;;;;;;16.70;48.10;;;;;;7397079;19;2168;-75
2024/01/06 06:31:02;;;;;;;;;;;16.70;47.80;;;;;;7394532;19;1834;-75
2024/01/06 06:33:28;;;;;;;;;;;16.80;47.60;;;;;;7396156;19;2017;-75
2024/01/06 06:35:53;;;;;;;;;;;16.90;47.40;;;;;;7396966;19;1601;-75
2024/01/06 06:38:19;;;;;;;;;;;17.00;47.30;;;;;;7394319;19;1942;-76
2024/01/06 06:40:44;;;;;;;;;;;17.10;47.10;;;;;;7397794;19;2085;-75
2024/01/06 06:43:10;;;;;;;;;;;17.20;46.90;;;;;;7396026;19;2092;-75
2024/01/06 06:45:35;;;;;;;;;;;17.20;46.90;;;;;;7392689;19;2072;-75
2024/01/06 06:48:00;;;;;;;;;;;17.10;46.80;;;;;;7394813;19;2863;-75
2024/01/06 06:50:26;;;;;;;;;;;17.10;46.80;;;;;;7391303;19;2094;-76
2024/01/06 06:52:52;;;;;;;;;;;17.00;46.80;;;;;;7392120;19;2447;-75
2024/01/06 06:55:18;;;;;;;;;;;17.00;47.00;;;;;;7398619;19;1835;-75
2024/01/06 06:57:43;;;;;;;;;;;16.90;47.20;;;;;;7397105;19;1718;-75
2024/01/06 07:00:09;;;;;;;;;;;16.90;47.40;;;;;;7395631;19;1448;-76
2024/01/06 07:02:34;;;;;;;;;;;16.90;47.40;;;;;;7393158;19;2979;-75
2024/01/06 07:05:00;;;;;;;;;;;16.80;47.50;;;;;;7393822;19;1861;-75
2024/01/06 07:07:25;;;;;;;;;;;16.80;47.60;;;;;;7394692;19;2251;-75
2024/01/06 07:09:51;;;;;;;;;;;16.70;47.70;;;;;;7393821;19;2110;-75
2024/01/06 07:12:16;;;;;;;;;;;16.70;48.30;;;;;;7395919;19;1911;-75
2024/01/06 07:14:42;;;;;;;;;;;16.60;48.00;;;;;;7390740;19;2736;-75
2024/01/06 07:17:08;;;;;;;;;;;16.60;48.10;;;;;;7390429;19;2518;-75
2024/01/06 07:19:34;;;;;;;;;;;16.60;47.90;;;;;;7393826;19;1820;-75
2024/01/06 07:21:59;;;;;;;;;;;16.70;47.70;;;;;;7404092;19;1994;-75
2024/01/06 07:24:26;;;;;;;;;;;16.80;47.60;;;;;;7400174;19;1954;-75
2024/01/06 07:26:51;;;;;;;;;;;16.80;47.40;;;;;;7401297;19;2138;-75
2024/01/06 07:29:16;;;;;;;;;;;17.00;47.30;;;;;;7401429;19;1723;-75
2024/01/06 07:31:42;;;;;;;;;;;17.10;47.10;;;;;;7399098;19;1923;-75
2024/01/06 07:34:07;;;;;;;;;;;17.10;46.80;;;;;;7399738;19;2495;-74
2024/01/06 07:36:33;;;;;;;;;;;17.20;46.70;;;;;;7404496;19;1698;-75
2024/01/06 07:38:58;;;;;;;;;;;17.20;46.60;;;;;;7400295;19;1200;-75
2024/01/06 07:41:24;;;;;;;;;;;17.30;46.60;;;;;;7403210;19;1988;-75
2024/01/06 07:43:49;;;;;;;;;;;17.20;46.70;;;;;;7403330;19;1537;-75
2024/01/06 07:46:14;;;;;;;;;;;17.10;46.70;;;;;;7399229;19;2594;-75
2024/01/06 07:48:40;;;;;;;;;;;17.00;46.80;;;;;;7400237;19;1396;-75
2024/01/06 07:51:05;;;;;;;;;;;17.00;47.10;;;;;;7403606;19;1849;-76
2024/01/06 07:53:31;;;;;;;;;;;16.90;47.10;;;;;;7403079;19;1994;-75
2024/01/06 07:55:56;;;;;;;;;;;16.80;47.50;;;;;;7400075;19;894;-76
2024/01/06 07:58:22;;;;;;;;;;;16.80;47.40;;;;;;7403070;19;1498;-75
2024/01/06 08:00:47;;;;;;;;;;;16.80;47.40;;;;;;7400068;19;1165;-76
2024/01/06 08:03:13;;;;;;;;;;;16.80;47.50;;;;;;7398540;19;3132;-75
2024/01/06 08:05:38;;;;;;;;;;;16.80;47.50;;;;;;7402506;19;1517;-75
2024/01/06 08:08:04;;;;;;;;;;;16.80;47.70;;;;;;7396574;19;2591;-75
2024/01/06 08:10:30;;;;;;;;;;;16.80;47.70;;;;;;7402127;19;1860;-75
2024/01/06 08:12:55;;;;;;;;;;;16.70;47.80;;;;;;7400282;19;1609;-75
2024/01/06 08:15:21;;;;;;;;;;;16.60;48.00;;;;;;7403180;19;1656;-75
2024/01/06 08:17:46;;;;;;;;;;;16.50;48.20;;;;;;7399251;19;1608;-75
2024/01/06 08:20:12;;;;;;;;;;;16.60;48.20;;;;;;7403055;19;1773;-75
2024/01/06 08:22:38;;;;;;;;;;;16.70;48.10;;;;;;7404514;19;1652;-75
2024/01/06 08:25:06;;;;;;;;;;;16.80;48.00;;;;;;7399643;19;1421;-75
2024/01/06 08:27:31;;;;;;;;;;;17.00;47.80;;;;;;7400903;19;1570;-75
2024/01/06 08:29:57;;;;;;;;;;;17.20;47.70;;;;;;7398386;19;1910;-76
2024/01/06 08:32:22;;;;;;;;;;;17.30;47.40;;;;;;7398663;19;1462;-74
2024/01/06 08:34:47;;;;;;;;;;;17.30;47.40;;;;;;7401062;19;1420;-75
2024/01/06 08:37:14;;;;;;;;;;;17.30;47.40;;;;;;7400931;19;1514;-75
2024/01/06 08:39:39;;;;;;;;;;;17.30;47.50;;;;;;7403606;19;1360;-75
2024/01/06 08:42:05;;;;;;;;;;;17.20;47.50;;;;;;7397265;19;796;-75
2024/01/06 08:44:30;;;;;;;;;;;17.20;47.70;;;;;;7399885;19;1696;-75
2024/01/06 08:46:56;;;;;;;;;;;17.10;47.70;;;;;;7397204;19;1002;-75
2024/01/06 08:49:21;;;;;;;;;;;17.10;47.80;;;;;;7399475;19;1662;-75
2024/01/06 08:51:46;;;;;;;;;;;17.20;48.00;;;;;;7397397;19;1936;-75
2024/01/06 08:54:12;;;;;;;;;;;17.10;48.00;;;;;;7401323;19;1507;-75
2024/01/06 08:56:38;;;;;;;;;;;17.10;48.10;;;;;;7396807;19;1018;-75
2024/01/06 08:59:03;;;;;;;;;;;17.10;48.20;;;;;;7397601;19;790;-75
2024/01/06 09:01:29;;;;;;;;;;;17.10;48.20;;;;;;7399235;19;1416;-76
2024/01/06 09:03:54;;;;;;;;;;;17.10;48.20;;;;;;7399402;19;1646;-75
2024/01/06 09:06:20;;;;;;;;;;;17.10;48.20;;;;;;7398557;19;2727;-75
2024/01/06 09:08:45;;;;;;;;;;;17.10;48.20;;;;;;7400894;19;1905;-75
2024/01/06 09:11:10;;;;;;;;;;;17.10;48.30;;;;;;7394336;19;1862;-75
2024/01/06 09:13:36;;;;;;;;;;;17.10;48.30;;;;;;7400225;19;1599;-75
2024/01/06 09:16:01;;;;;;;;;;;17.10;48.40;;;;;;7400474;19;1511;-75
2024/01/06 09:18:27;;;;;;;;;;;17.10;48.50;;;;;;7400411;19;1508;-76
2024/01/06 09:20:52;;;;;;;;;;;17.20;48.70;;;;;;7401316;19;1485;-75
2024/01/06 09:23:19;;;;;;;;;;;17.20;48.60;;;;;;7399829;19;1449;-75
2024/01/06 09:25:44;;;;;;;;;;;17.20;48.60;;;;;;7400405;19;1463;-75
2024/01/06 09:28:10;;;;;;;;;;;17.10;48.50;;;;;;7396438;19;1145;-75
2024/01/06 09:30:37;;;;;;;;;;;17.20;48.70;;;;;;7396048;19;1841;-75
2024/01/06 09:33:02;;;;;;;;;;;17.20;48.60;;;;;;7396641;19;1645;-75
2024/01/06 09:35:28;;;;;;;;;;;17.30;48.80;;;;;;7398876;19;1749;-75
2024/01/06 09:37:53;;;;;;;;;;;17.20;48.40;;;;;;7399440;19;1645;-75
2024/01/06 09:40:23;;;;;;;;;;;17.30;48.70;;;;;;7397517;19;1723;-75
2024/01/06 09:42:52;;;;;;;;;;;17.30;48.60;;;;;;7397431;19;1457;-75
2024/01/06 09:45:17;;;;;;;;;;;17.30;48.80;;;;;;7395837;19;778;-75
2024/01/06 09:47:43;;;;;;;;;;;17.30;48.70;;;;;;7395061;19;919;-75
2024/01/06 09:50:09;;;;;;;;;;;17.30;48.80;;;;;;7396304;19;1845;-75
2024/01/06 09:52:38;;;;;;;;;;;17.40;48.90;;;;;;7398845;19;1649;-75
2024/01/06 09:55:05;;;;;;;;;;;17.40;48.80;;;;;;7399317;19;1573;-75
2024/01/06 09:57:31;;;;;;;;;;;17.40;48.90;;;;;;7396140;19;993;-75
2024/01/06 09:59:56;;;;;;;;;;;17.40;48.90;;;;;;7395994;19;1614;-75
2024/01/06 10:02:22;;;;;;;;;;;17.40;48.70;;;;;;7397604;19;1701;-75
2024/01/06 10:04:48;;;;;;;;;;;17.40;48.80;;;;;;7398757;19;1562;-75
2024/01/06 10:07:13;;;;;;;;;;;17.40;48.80;;;;;;7396710;19;2189;-75
2024/01/06 10:09:42;;;;;;;;;;;17.40;48.90;;;;;;7394135;19;1224;-75
2024/01/06 10:12:08;;;;;;;;;;;17.40;48.80;;;;;;7395073;19;1422;-75
2024/01/06 10:14:33;;;;;;;;;;;17.40;48.90;;;;;;7397756;19;1532;-74
2024/01/06 10:16:58;;;;;;;;;;;17.40;48.80;;;;;;7400036;19;1592;-75
2024/01/06 10:19:24;;;;;;;;;;;17.40;49.00;;;;;;7398571;19;1672;-75
2024/01/06 10:21:49;;;;;;;;;;;17.40;49.00;;;;;;7395822;19;1530;-75
2024/01/06 10:24:17;;;;;;;;;;;17.50;48.80;;;;;;7397180;19;1577;-75
2024/01/06 10:26:42;;;;;;;;;;;17.50;49.00;;;;;;7396789;19;1474;-75
2024/01/06 10:29:08;;;;;;;;;;;17.50;48.80;;;;;;7392791;19;1638;-75
2024/01/06 10:31:33;;;;;;;;;;;17.50;48.80;;;;;;7395397;19;1838;-75
2024/01/06 10:33:59;;;;;;;;;;;17.60;48.90;;;;;;7395587;19;1549;-75
2024/01/06 10:36:25;;;;;;;;;;;17.60;48.70;;;;;;7397680;19;2171;-75
2024/01/06 10:38:52;;;;;;;;;;;17.60;49.00;;;;;;7395724;19;1300;-75
2024/01/06 10:41:17;;;;;;;;;;;17.60;48.80;;;;;;7394671;19;1519;-75
2024/01/06 10:43:43;;;;;;;;;;;17.70;48.90;;;;;;7394527;19;800;-75
2024/01/06 10:46:12;;;;;;;;;;;17.70;48.80;;;;;;7397920;19;1685;-75
2024/01/06 10:48:45;;;;;;;;;;;17.70;49.00;;;;;;7394847;19;1361;-75
2024/01/06 10:51:11;;;;;;;;;;;17.70;48.70;;;;;;7393820;19;1857;-75
2024/01/06 10:53:38;;;;;;;;;;;17.70;49.00;;;;;;7394750;19;1953;-75
2024/01/06 10:56:04;;;;;;;;;;;17.70;48.90;;;;;;7393523;19;835;-75
2024/01/06 10:58:36;;;;;;;;;;;17.70;49.00;;;;;;7393760;19;1751;-75
2024/01/06 11:01:01;;;;;;;;;;;17.70;48.90;;;;;;7395179;19;870;-75
2024/01/06 11:03:28;;;;;;;;;;;17.70;48.70;;;;;;7393281;19;1569;-75
2024/01/06 11:05:53;;;;;;;;;;;17.70;49.00;;;;;;7397600;19;1698;-75
2024/01/06 11:08:19;;;;;;;;;;;17.70;49.00;;;;;;7394113;19;2421;-75
2024/01/06 11:10:44;;;;;;;;;;;17.70;49.00;;;;;;7392176;19;1946;-75
2024/01/06 11:13:11;;;;;;;;;;;17.80;48.70;;;;;;7393868;19;1655;-75
2024/01/06 11:15:44;;;;;;;;;;;17.80;48.70;;;;;;7393697;19;837;-75
2024/01/06 11:18:29;;;;;;;;;;;17.80;48.80;;;;;;7392267;19;812;-75
2024/01/06 11:21:13;;;;;;;;;;;17.80;49.00;;;;;;7397905;19;1642;-75
2024/01/06 11:23:39;;;;;;;;;;;17.80;48.90;;;;;;7396203;19;1557;-74
2024/01/06 11:26:06;;;;;;;;;;;17.90;48.80;;;;;;7395852;19;1806;-75
2024/01/06 11:28:31;;;;;;;;;;;17.80;49.00;;;;;;7392722;19;1134;-75
2024/01/06 11:31:09;;;;;;;;;;;17.80;49.00;;;;;;7395278;19;1842;-75
2024/01/06 11:33:41;;;;;;;;;;;17.70;49.20;;;;;;7394801;19;1527;-75
2024/01/06 11:36:08;;;;;;;;;;;17.80;49.10;;;;;;7395235;19;1523;-74
2024/01/06 11:38:37;;;;;;;;;;;17.80;49.20;;;;;;7399063;19;1716;-74
2024/01/06 11:41:02;;;;;;;;;;;17.80;49.40;;;;;;7395564;19;1515;-74
2024/01/06 11:43:28;;;;;;;;;;;17.80;49.40;;;;;;7396418;19;1667;-74
2024/01/06 11:45:53;;;;;;;;;;;17.80;49.40;;;;;;7392368;19;854;-74
2024/01/06 11:48:19;;;;;;;;;;;17.80;49.30;;;;;;7395061;19;1562;-74
2024/01/06 11:50:44;;;;;;;;;;;17.90;49.40;;;;;;7394102;19;1857;-74
2024/01/06 11:53:10;;;;;;;;;;;17.80;49.30;;;;;;7389342;19;5107;-74
2024/01/06 11:55:36;;;;;;;;;;;17.70;49.40;;;;;;7395144;19;2942;-74
2024/01/06 11:58:02;;;;;;;;;;;17.80;49.80;;;;;;7391282;19;2989;-74
2024/01/06 12:00:28;;;;;;;;;;;17.80;50.00;;;;;;7394140;19;3856;-74
2024/01/06 12:02:57;;;;;;;;;;;17.80;49.70;;;;;;7392103;19;2314;-74
2024/01/06 12:05:24;;;;;;;;;;;17.80;49.60;;;;;;7398400;19;2329;-75
2024/01/06 12:07:53;;;;;;;;;;;17.90;49.70;;;;;;7405914;19;1701;-74
2024/01/06 12:10:22;;;;;;;;;;;17.90;49.90;;;;;;7401339;19;1828;-74
2024/01/06 12:13:01;;;;;;;;;;;17.90;49.80;;;;;;7400533;19;1546;-74
2024/01/06 12:15:26;;;;;;;;;;;17.90;49.90;;;;;;7401801;19;1480;-74
2024/01/06 12:17:52;;;;;;;;;;;17.90;50.00;;;;;;7399199;19;2900;-74
2024/01/06 12:20:17;;;;;;;;;;;17.90;50.00;;;;;;7403988;19;1573;-74
2024/01/06 12:22:44;;;;;;;;;;;17.90;49.90;;;;;;7401203;19;1512;-74
2024/01/06 12:25:10;;;;;;;;;;;17.90;49.90;;;;;;7398200;19;3239;-74
2024/01/06 12:27:35;;;;;;;;;;;17.90;49.90;;;;;;7400558;19;1717;-74
2024/01/06 12:30:00;;;;;;;;;;;17.90;50.00;;;;;;7398858;19;1853;-75
2024/01/06 12:32:26;;;;;;;;;;;17.90;50.00;;;;;;7397164;19;3057;-74
2024/01/06 12:34:51;;;;;;;;;;;17.90;49.90;;;;;;7400648;19;2689;-75
2024/01/06 12:37:17;;;;;;;;;;;17.90;49.90;;;;;;7399830;19;1619;-74
2024/01/06 12:39:45;;;;;;;;;;;17.90;50.20;;;;;;7398903;19;3104;-74
2024/01/06 12:42:10;;;;;;;;;;;17.90;49.90;;;;;;7397785;19;2800;-75
2024/01/06 12:44:38;;;;;;;;;;;17.90;49.90;;;;;;7399936;19;2715;-74
2024/01/06 12:47:04;;;;;;;;;;;17.90;49.90;;;;;;7396951;19;1160;-75
2024/01/06 12:49:29;;;;;;;;;;;17.90;49.80;;;;;;7400938;19;1494;-74
2024/01/06 12:51:55;;;;;;;;;;;18.00;50.00;;;;;;7399875;19;1857;-74
2024/01/06 12:54:20;;;;;;;;;;;18.10;49.80;;;;;;7398527;19;2226;-75
2024/01/06 12:56:46;;;;;;;;;;;18.00;49.80;;;;;;7397804;19;1425;-74
2024/01/06 12:59:11;;;;;;;;;;;18.00;49.60;;;;;;7400059;19;1534;-75
2024/01/06 13:01:36;;;;;;;;;;;18.00;49.90;;;;;;7398046;19;3018;-74
2024/01/06 13:04:02;;;;;;;;;;;18.00;50.50;;;;;;7399723;19;1410;-74
2024/01/06 13:06:27;;;;;;;;;;;18.00;49.90;;;;;;7401501;19;1698;-75
2024/01/06 13:08:53;;;;;;;;;;;18.00;49.80;;;;;;7399697;19;1634;-75
2024/01/06 13:11:19;;;;;;;;;;;18.00;49.70;;;;;;7395269;19;1857;-75
2024/01/06 13:13:44;;;;;;;;;;;18.00;49.70;;;;;;7398399;19;867;-75
2024/01/06 13:16:09;;;;;;;;;;;18.10;50.30;;;;;;7396159;19;2733;-74
2024/01/06 13:18:35;;;;;;;;;;;18.00;49.80;;;;;;7397084;19;2877;-74
2024/01/06 13:21:01;;;;;;;;;;;18.00;49.80;;;;;;7399894;19;1586;-75
2024/01/06 13:23:27;;;;;;;;;;;18.10;49.90;;;;;;7401592;19;3054;-75
2024/01/06 13:25:52;;;;;;;;;;;18.00;49.70;;;;;;7398429;19;1687;-75
2024/01/06 13:28:17;;;;;;;;;;;18.10;49.60;;;;;;7398020;19;1636;-75
2024/01/06 13:30:43;;;;;;;;;;;18.00;49.70;;;;;;7396396;19;2105;-75
2024/01/06 13:33:11;;;;;;;;;;;18.00;49.80;;;;;;7397882;19;1454;-75
2024/01/06 13:35:37;;;;;;;;;;;18.00;49.70;;;;;;7399216;19;2444;-75
2024/01/06 13:38:04;;;;;;;;;;;18.00;49.80;;;;;;7395567;19;997;-75
2024/01/06 13:40:29;;;;;;;;;;;18.10;49.80;;;;;;7400657;19;1492;-75
2024/01/06 13:42:55;;;;;;;;;;;18.20;50.40;;;;;;7395054;19;1080;-75
2024/01/06 13:45:20;;;;;;;;;;;18.10;49.70;;;;;;7396545;19;1600;-75
2024/01/06 13:47:46;;;;;;;;;;;18.10;49.70;;;;;;7397272;19;2327;-75
2024/01/06 13:50:12;;;;;;;;;;;18.10;49.70;;;;;;7399889;19;1842;-75
2024/01/06 13:52:37;;;;;;;;;;;18.10;49.80;;;;;;7399844;19;1749;-75
2024/01/06 13:55:03;;;;;;;;;;;18.10;49.90;;;;;;7395664;19;1060;-75
2024/01/06 13:57:28;;;;;;;;;;;18.10;49.90;;;;;;7397245;19;1380;-75
2024/01/06 13:59:54;;;;;;;;;;;18.20;49.90;;;;;;7395369;19;895;-75
2024/01/06 14:02:19;;;;;;;;;;;18.10;49.80;;;;;;7398989;19;1602;-75
2024/01/06 14:04:45;;;;;;;;;;;18.10;49.90;;;;;;7401144;19;1443;-75
2024/01/06 14:07:10;;;;;;;;;;;18.00;49.90;;;;;;7396751;19;1768;-75
2024/01/06 14:09:36;;;;;;;;;;;18.10;50.00;;;;;;7397761;19;1674;-75
2024/01/06 14:12:01;;;;;;;;;;;18.10;49.60;;;;;;7392653;19;1854;-75
2024/01/06 14:14:27;;;;;;;;;;;18.10;49.80;;;;;;7395586;19;1098;-75
2024/01/06 14:16:52;;;;;;;;;;;18.10;49.90;;;;;;7396263;19;2688;-75
2024/01/06 14:19:17;;;;;;;;;;;18.10;49.90;;;;;;7397307;19;3040;-75
2024/01/06 14:21:43;;;;;;;;;;;18.10;49.90;;;;;;7395211;19;3073;-75
2024/01/06 14:24:08;;;;;;;;;;;18.10;49.80;;;;;;7396049;19;1558;-75